sensor_id;sensor_type;location;lat;lon;timestamp;pressure;altitude;pressure_sealevel;temperature;humidity
5296;BME280;2670;42.720;23.336;2023-03-19T00:01:47;-22486.41;;;1.55;94.43
5296;BME280;2670;42.720;23.336;2023-03-19T00:04:14;-22485.34;;;1.52;96.39
5296;BME280;2670;42.720;23.336;2023-03-19T00:06:41;-22484.59;;;1.49;96.76
5296;BME280;2670;42.720;23.336;2023-03-19T00:09:08;-22487.28;;;1.58;95.36
5296;BME280;2670;42.720;23.336;2023-03-19T00:11:37;-22489.84;;;1.67;94.06
5296;BME280;2670;42.720;23.336;2023-03-19T00:14:04;-22487.91;;;1.60;94.68
5296;BME280;2670;42.720;23.336;2023-03-19T00:16:31;-22487.91;;;1.60;94.10
5296;BME280;2670;42.720;23.336;2023-03-19T00:18:58;-22485.78;;;1.53;94.22
5296;BME280;2670;42.720;23.336;2023-03-19T00:21:25;-22483.09;;;1.44;95.28
5296;BME280;2670;42.720;23.336;2023-03-19T00:23:52;-22482.06;;;1.40;96.27
5296;BME280;2670;42.720;23.336;2023-03-19T00:26:21;-22484.75;;;1.49;95.38
5296;BME280;2670;42.720;23.336;2023-03-19T00:28:49;-22482.22;;;1.41;95.58
5296;BME280;2670;42.720;23.336;2023-03-19T00:31:16;-22480.13;;;1.34;96.69
5296;BME280;2670;42.720;23.336;2023-03-19T00:33:43;-22479.22;;;1.31;97.35
5296;BME280;2670;42.720;23.336;2023-03-19T00:36:09;-22480.72;;;1.36;97.00
5296;BME280;2670;42.720;23.336;2023-03-19T00:38:37;-22478.75;;;1.29;97.22
5296;BME280;2670;42.720;23.336;2023-03-19T00:41:05;-22478.75;;;1.29;97.62
5296;BME280;2670;42.720;23.336;2023-03-19T00:43:32;-22476.97;;;1.23;98.03
5296;BME280;2670;42.720;23.336;2023-03-19T00:46:00;-22477.13;;;1.23;97.72
5296;BME280;2670;42.720;23.336;2023-03-19T00:48:27;-22475.19;;;1.17;97.04
5296;BME280;2670;42.720;23.336;2023-03-19T00:50:53;-22475.78;;;1.19;97.43
5296;BME280;2670;42.720;23.336;2023-03-19T00:53:20;-22472.63;;;1.08;98.44
5296;BME280;2670;42.720;23.336;2023-03-19T00:55:47;-22474.88;;;1.16;98.25
5296;BME280;2670;42.720;23.336;2023-03-19T00:58:14;-22476.97;;;1.23;96.26
5296;BME280;2670;42.720;23.336;2023-03-19T01:00:40;-22473.97;;;1.13;96.92
5296;BME280;2670;42.720;23.336;2023-03-19T01:03:08;-22472.34;;;1.07;97.33
5296;BME280;2670;42.720;23.336;2023-03-19T01:05:35;-22473.38;;;1.11;96.52
5296;BME280;2670;42.720;23.336;2023-03-19T01:08:02;-22471.28;;;1.04;97.01
5296;BME280;2670;42.720;23.336;2023-03-19T01:10:29;-22468.91;;;0.95;98.12
5296;BME280;2670;42.720;23.336;2023-03-19T01:12:58;-22467.09;;;0.89;98.28
5296;BME280;2670;42.720;23.336;2023-03-19T01:15:25;-22465.00;;;0.82;100.00
5296;BME280;2670;42.720;23.336;2023-03-19T01:17:51;-22465.91;;;0.85;100.00
5296;BME280;2670;42.720;23.336;2023-03-19T01:20:23;-22466.94;;;0.89;99.56
5296;BME280;2670;42.720;23.336;2023-03-19T01:22:49;-22468.75;;;0.95;98.00
5296;BME280;2670;42.720;23.336;2023-03-19T01:25:17;-22465.47;;;0.84;98.54
5296;BME280;2670;42.720;23.336;2023-03-19T01:27:43;-22465.16;;;0.83;98.22
5296;BME280;2670;42.720;23.336;2023-03-19T01:30:10;-22467.25;;;0.90;97.99
5296;BME280;2670;42.720;23.336;2023-03-19T01:32:37;-22465.00;;;0.82;98.03
5296;BME280;2670;42.720;23.336;2023-03-19T01:35:05;-22462.59;;;0.74;98.50
5296;BME280;2670;42.720;23.336;2023-03-19T01:37:33;-22461.88;;;0.71;99.47
5296;BME280;2670;42.720;23.336;2023-03-19T01:40:00;-22461.13;;;0.69;99.32
5296;BME280;2670;42.720;23.336;2023-03-19T01:42:26;-22459.91;;;0.65;99.32
5296;BME280;2670;42.720;23.336;2023-03-19T01:44:53;-22459.63;;;0.64;99.19
5296;BME280;2670;42.720;23.336;2023-03-19T01:47:28;-22459.00;;;0.62;98.86
5296;BME280;2670;42.720;23.336;2023-03-19T01:49:56;-22458.28;;;0.59;98.88
5296;BME280;2670;42.720;23.336;2023-03-19T01:52:28;-22456.47;;;0.53;99.86
5296;BME280;2670;42.720;23.336;2023-03-19T01:54:58;-22457.97;;;0.58;99.73
5296;BME280;2670;42.720;23.336;2023-03-19T01:57:28;-22456.47;;;0.53;99.56
5296;BME280;2670;42.720;23.336;2023-03-19T01:59:56;-22458.28;;;0.59;98.92
5296;BME280;2670;42.720;23.336;2023-03-19T02:02:27;-22458.13;;;0.59;98.52
5296;BME280;2670;42.720;23.336;2023-03-19T02:04:57;-22458.56;;;0.60;98.65
5296;BME280;2670;42.720;23.336;2023-03-19T02:07:27;-22456.63;;;0.54;99.47
5296;BME280;2670;42.720;23.336;2023-03-19T02:09:54;-22454.69;;;0.47;99.63
5296;BME280;2670;42.720;23.336;2023-03-19T02:12:23;-22458.41;;;0.60;99.01
5296;BME280;2670;42.720;23.336;2023-03-19T02:14:49;-22459.75;;;0.64;99.27
5296;BME280;2670;42.720;23.336;2023-03-19T02:17:16;-22456.31;;;0.53;99.51
5296;BME280;2670;42.720;23.336;2023-03-19T02:19:48;-22456.31;;;0.53;99.88
5296;BME280;2670;42.720;23.336;2023-03-19T02:22:19;-22455.13;;;0.48;99.26
5296;BME280;2670;42.720;23.336;2023-03-19T02:24:50;-22453.34;;;0.42;99.62
5296;BME280;2670;42.720;23.336;2023-03-19T02:27:19;-22454.53;;;0.46;99.91
5296;BME280;2670;42.720;23.336;2023-03-19T02:29:46;-22453.03;;;0.41;100.00
5296;BME280;2670;42.720;23.336;2023-03-19T02:32:13;-22453.34;;;0.42;99.63
5296;BME280;2670;42.720;23.336;2023-03-19T02:34:41;-22453.63;;;0.43;99.82
5296;BME280;2670;42.720;23.336;2023-03-19T02:37:12;-22451.97;;;0.38;100.00
5296;BME280;2670;42.720;23.336;2023-03-19T02:39:47;-22452.28;;;0.39;100.00
5296;BME280;2670;42.720;23.336;2023-03-19T02:42:16;-22451.81;;;0.37;100.00
5296;BME280;2670;42.720;23.336;2023-03-19T02:44:45;-22448.84;;;0.27;100.00
5296;BME280;2670;42.720;23.336;2023-03-19T02:47:12;-22448.09;;;0.24;100.00
5296;BME280;2670;42.720;23.336;2023-03-19T02:49:39;-22451.09;;;0.35;100.00
5296;BME280;2670;42.720;23.336;2023-03-19T02:52:07;-22448.84;;;0.27;100.00
5296;BME280;2670;42.720;23.336;2023-03-19T02:54:33;-22449.13;;;0.28;100.00
5296;BME280;2670;42.720;23.336;2023-03-19T02:57:00;-22445.38;;;0.15;100.00
5296;BME280;2670;42.720;23.336;2023-03-19T02:59:27;-22446.88;;;0.20;100.00
5296;BME280;2670;42.720;23.336;2023-03-19T03:01:55;-22446.28;;;0.18;100.00
5296;BME280;2670;42.720;23.336;2023-03-19T03:04:22;-22442.69;;;0.06;100.00
5296;BME280;2670;42.720;23.336;2023-03-19T03:06:48;-22443.16;;;0.08;100.00
5296;BME280;2670;42.720;23.336;2023-03-19T03:09:15;-22442.25;;;0.05;100.00
5296;BME280;2670;42.720;23.336;2023-03-19T03:11:42;-22446.00;;;0.17;100.00
5296;BME280;2670;42.720;23.336;2023-03-19T03:14:09;-22442.84;;;0.07;100.00
5296;BME280;2670;42.720;23.336;2023-03-19T03:16:37;-22442.09;;;0.04;100.00
5296;BME280;2670;42.720;23.336;2023-03-19T03:19:05;-22442.84;;;0.07;100.00
5296;BME280;2670;42.720;23.336;2023-03-19T03:21:32;-22445.84;;;0.17;100.00
5296;BME280;2670;42.720;23.336;2023-03-19T03:23:59;-22441.34;;;0.02;100.00
5296;BME280;2670;42.720;23.336;2023-03-19T03:26:26;-22444.03;;;0.11;100.00
5296;BME280;2670;42.720;23.336;2023-03-19T03:28:53;-22442.41;;;0.05;100.00
5296;BME280;2670;42.720;23.336;2023-03-19T03:31:20;-22443.75;;;0.10;100.00
5296;BME280;2670;42.720;23.336;2023-03-19T03:33:47;-22442.25;;;0.05;100.00
5296;BME280;2670;42.720;23.336;2023-03-19T03:36:16;-22440.75;;;-0.01;100.00
5296;BME280;2670;42.720;23.336;2023-03-19T03:38:43;-22439.56;;;-0.05;100.00
5296;BME280;2670;42.720;23.336;2023-03-19T03:41:10;-22440.75;;;-0.01;100.00
5296;BME280;2670;42.720;23.336;2023-03-19T03:43:37;-22440.75;;;-0.01;100.00
5296;BME280;2670;42.720;23.336;2023-03-19T03:46:05;-22441.06;;;0.01;100.00
5296;BME280;2670;42.720;23.336;2023-03-19T03:48:33;-22439.41;;;-0.05;100.00
5296;BME280;2670;42.720;23.336;2023-03-19T03:50:59;-22441.19;;;0.01;100.00
5296;BME280;2670;42.720;23.336;2023-03-19T03:53:29;-22441.66;;;0.03;100.00
5296;BME280;2670;42.720;23.336;2023-03-19T03:55:55;-22437.16;;;-0.13;100.00
5296;BME280;2670;42.720;23.336;2023-03-19T03:58:22;-22437.75;;;-0.11;100.00
5296;BME280;2670;42.720;23.336;2023-03-19T04:00:49;-22437.16;;;-0.13;100.00
5296;BME280;2670;42.720;23.336;2023-03-19T04:03:16;-22438.94;;;-0.07;100.00
5296;BME280;2670;42.720;23.336;2023-03-19T04:05:43;-22435.34;;;-0.19;100.00
5296;BME280;2670;42.720;23.336;2023-03-19T04:08:10;-22433.09;;;-0.27;100.00
5296;BME280;2670;42.720;23.336;2023-03-19T04:10:40;-22434.16;;;-0.23;100.00
5296;BME280;2670;42.720;23.336;2023-03-19T04:13:07;-22434.59;;;-0.21;100.00
5296;BME280;2670;42.720;23.336;2023-03-19T04:15:34;-22434.00;;;-0.23;100.00
5296;BME280;2670;42.720;23.336;2023-03-19T04:18:01;-22431.63;;;-0.32;100.00
5296;BME280;2670;42.720;23.336;2023-03-19T04:20:28;-22430.25;;;-0.36;100.00
5296;BME280;2670;42.720;23.336;2023-03-19T04:22:55;-22431.31;;;-0.33;100.00
5296;BME280;2670;42.720;23.336;2023-03-19T04:25:22;-22429.38;;;-0.39;100.00
5296;BME280;2670;42.720;23.336;2023-03-19T04:27:50;-22429.66;;;-0.38;100.00
5296;BME280;2670;42.720;23.336;2023-03-19T04:30:17;-22429.38;;;-0.39;100.00
5296;BME280;2670;42.720;23.336;2023-03-19T04:32:44;-22427.72;;;-0.45;100.00
5296;BME280;2670;42.720;23.336;2023-03-19T04:35:11;-22427.13;;;-0.47;100.00
5296;BME280;2670;42.720;23.336;2023-03-19T04:37:38;-22427.13;;;-0.47;100.00
5296;BME280;2670;42.720;23.336;2023-03-19T04:40:06;-22431.16;;;-0.33;100.00
5296;BME280;2670;42.720;23.336;2023-03-19T04:42:33;-22431.91;;;-0.31;100.00
5296;BME280;2670;42.720;23.336;2023-03-19T04:45:01;-22430.84;;;-0.34;100.00
5296;BME280;2670;42.720;23.336;2023-03-19T04:47:28;-22429.81;;;-0.38;100.00
5296;BME280;2670;42.720;23.336;2023-03-19T04:49:55;-22431.47;;;-0.32;100.00
5296;BME280;2670;42.720;23.336;2023-03-19T04:52:22;-22429.81;;;-0.38;100.00
5296;BME280;2670;42.720;23.336;2023-03-19T04:54:49;-22430.25;;;-0.36;100.00
5296;BME280;2670;42.720;23.336;2023-03-19T04:57:15;-22431.00;;;-0.34;100.00
5296;BME280;2670;42.720;23.336;2023-03-19T04:59:42;-22429.81;;;-0.38;100.00
5296;BME280;2670;42.720;23.336;2023-03-19T05:02:10;-22427.88;;;-0.44;100.00
5296;BME280;2670;42.720;23.336;2023-03-19T05:04:37;-22431.31;;;-0.33;100.00
5296;BME280;2670;42.720;23.336;2023-03-19T05:07:04;-22432.06;;;-0.30;100.00
5296;BME280;2670;42.720;23.336;2023-03-19T05:09:31;-22431.16;;;-0.33;100.00
5296;BME280;2670;42.720;23.336;2023-03-19T05:11:58;-22432.81;;;-0.28;100.00
5296;BME280;2670;42.720;23.336;2023-03-19T05:14:25;-22432.38;;;-0.29;100.00
5296;BME280;2670;42.720;23.336;2023-03-19T05:16:52;-22434.47;;;-0.22;100.00
5296;BME280;2670;42.720;23.336;2023-03-19T05:19:20;-22434.47;;;-0.22;100.00
5296;BME280;2670;42.720;23.336;2023-03-19T05:21:47;-22436.84;;;-0.14;100.00
5296;BME280;2670;42.720;23.336;2023-03-19T05:24:14;-22438.19;;;-0.09;100.00
5296;BME280;2670;42.720;23.336;2023-03-19T05:26:40;-22441.50;;;0.02;100.00
5296;BME280;2670;42.720;23.336;2023-03-19T05:29:07;-22437.00;;;-0.13;100.00
5296;BME280;2670;42.720;23.336;2023-03-19T05:31:36;-22441.94;;;0.04;100.00
5296;BME280;2670;42.720;23.336;2023-03-19T05:34:03;-22439.41;;;-0.05;100.00
5296;BME280;2670;42.720;23.336;2023-03-19T05:36:31;-22438.19;;;-0.09;100.00
5296;BME280;2670;42.720;23.336;2023-03-19T05:38:58;-22437.16;;;-0.13;100.00
5296;BME280;2670;42.720;23.336;2023-03-19T05:41:25;-22438.50;;;-0.08;100.00
5296;BME280;2670;42.720;23.336;2023-03-19T05:43:51;-22433.72;;;-0.24;100.00
5296;BME280;2670;42.720;23.336;2023-03-19T05:46:18;-22432.06;;;-0.30;100.00
5296;BME280;2670;42.720;23.336;2023-03-19T05:48:45;-22426.81;;;-0.48;100.00
5296;BME280;2670;42.720;23.336;2023-03-19T05:51:11;-22431.75;;;-0.31;100.00
5296;BME280;2670;42.720;23.336;2023-03-19T05:53:39;-22429.50;;;-0.39;100.00
5296;BME280;2670;42.720;23.336;2023-03-19T05:56:06;-22432.66;;;-0.28;100.00
5296;BME280;2670;42.720;23.336;2023-03-19T05:58:33;-22430.84;;;-0.34;100.00
5296;BME280;2670;42.720;23.336;2023-03-19T06:01:00;-22433.56;;;-0.25;100.00
5296;BME280;2670;42.720;23.336;2023-03-19T06:03:27;-22437.00;;;-0.13;100.00
5296;BME280;2670;42.720;23.336;2023-03-19T06:05:54;-22441.06;;;0.01;100.00
5296;BME280;2670;42.720;23.336;2023-03-19T06:08:22;-22442.25;;;0.05;100.00
5296;BME280;2670;42.720;23.336;2023-03-19T06:10:51;-22445.09;;;0.14;100.00
5296;BME280;2670;42.720;23.336;2023-03-19T06:13:18;-22447.94;;;0.24;100.00
5296;BME280;2670;42.720;23.336;2023-03-19T06:15:46;-22448.22;;;0.25;100.00
5296;BME280;2670;42.720;23.336;2023-03-19T06:18:13;-22452.13;;;0.38;100.00
5296;BME280;2670;42.720;23.336;2023-03-19T06:20:40;-22453.63;;;0.43;100.00
5296;BME280;2670;42.720;23.336;2023-03-19T06:23:07;-22456.03;;;0.52;100.00
5296;BME280;2670;42.720;23.336;2023-03-19T06:25:34;-22457.66;;;0.57;100.00
5296;BME280;2670;42.720;23.336;2023-03-19T06:28:02;-22456.16;;;0.52;100.00
5296;BME280;2670;42.720;23.336;2023-03-19T06:30:29;-22460.66;;;0.67;100.00
5296;BME280;2670;42.720;23.336;2023-03-19T06:32:56;-22462.75;;;0.74;100.00
5296;BME280;2670;42.720;23.336;2023-03-19T06:35:23;-22468.00;;;0.92;100.00
5296;BME280;2670;42.720;23.336;2023-03-19T06:37:49;-22468.91;;;0.95;100.00
5296;BME280;2670;42.720;23.336;2023-03-19T06:40:17;-22473.84;;;1.12;100.00
5296;BME280;2670;42.720;23.336;2023-03-19T06:42:44;-22475.03;;;1.16;99.99
5296;BME280;2670;42.720;23.336;2023-03-19T06:45:12;-22472.47;;;1.08;99.91
5296;BME280;2670;42.720;23.336;2023-03-19T06:47:40;-22478.47;;;1.28;97.91
5296;BME280;2670;42.720;23.336;2023-03-19T06:50:08;-22475.78;;;1.19;97.56
5296;BME280;2670;42.720;23.336;2023-03-19T06:52:35;-22476.97;;;1.23;99.91
5296;BME280;2670;42.720;23.336;2023-03-19T06:55:02;-22478.75;;;1.29;100.00
5296;BME280;2670;42.720;23.336;2023-03-19T06:57:29;-22484.16;;;1.47;96.31
5296;BME280;2670;42.720;23.336;2023-03-19T06:59:56;-22481.31;;;1.38;94.74
5296;BME280;2670;42.720;23.336;2023-03-19T07:02:24;-22488.63;;;1.63;93.81
5296;BME280;2670;42.720;23.336;2023-03-19T07:04:51;-22490.13;;;1.68;93.04
5296;BME280;2670;42.720;23.336;2023-03-19T07:07:18;-22487.28;;;1.58;93.52
5296;BME280;2670;42.720;23.336;2023-03-19T07:09:45;-22493.56;;;1.80;96.17
5296;BME280;2670;42.720;23.336;2023-03-19T07:12:12;-22496.56;;;1.90;92.66
5296;BME280;2670;42.720;23.336;2023-03-19T07:14:39;-22498.50;;;1.96;90.27
5296;BME280;2670;42.720;23.336;2023-03-19T07:17:05;-22497.63;;;1.93;91.89
5296;BME280;2670;42.720;23.336;2023-03-19T07:19:34;-22501.50;;;2.07;91.37
5296;BME280;2670;42.720;23.336;2023-03-19T07:22:00;-22503.75;;;2.14;90.32
5296;BME280;2670;42.720;23.336;2023-03-19T07:24:28;-22510.31;;;2.37;92.00
5296;BME280;2670;42.720;23.336;2023-03-19T07:26:54;-22513.31;;;2.47;88.32
5296;BME280;2670;42.720;23.336;2023-03-19T07:29:23;-22511.97;;;2.42;87.15
5296;BME280;2670;42.720;23.336;2023-03-19T07:31:49;-22515.09;;;2.53;87.65
5296;BME280;2670;42.720;23.336;2023-03-19T07:34:16;-22520.94;;;2.73;95.37
5296;BME280;2670;42.720;23.336;2023-03-19T07:36:44;-22523.47;;;2.82;91.88
5296;BME280;2670;42.720;23.336;2023-03-19T07:39:11;-22524.66;;;2.86;91.06
5296;BME280;2670;42.720;23.336;2023-03-19T07:41:38;-22529.28;;;3.02;85.88
5296;BME280;2670;42.720;23.336;2023-03-19T07:44:05;-22527.06;;;2.94;85.40
5296;BME280;2670;42.720;23.336;2023-03-19T07:46:31;-22525.56;;;2.89;87.32
5296;BME280;2670;42.720;23.336;2023-03-19T07:48:58;-22531.38;;;3.09;90.39
5296;BME280;2670;42.720;23.336;2023-03-19T07:51:25;-22531.97;;;3.11;86.10
5296;BME280;2670;42.720;23.336;2023-03-19T07:53:53;-22532.88;;;3.14;84.94
5296;BME280;2670;42.720;23.336;2023-03-19T07:56:20;-22533.91;;;3.17;86.13
5296;BME280;2670;42.720;23.336;2023-03-19T07:58:47;-22538.69;;;3.34;83.90
5296;BME280;2670;42.720;23.336;2023-03-19T08:01:14;-22539.75;;;3.37;82.46
5296;BME280;2670;42.720;23.336;2023-03-19T08:03:40;-22542.44;;;3.46;80.43
5296;BME280;2670;42.720;23.336;2023-03-19T08:06:08;-22541.97;;;3.45;79.90
5296;BME280;2670;42.720;23.336;2023-03-19T08:08:35;-22544.81;;;3.55;83.70
5296;BME280;2670;42.720;23.336;2023-03-19T08:11:04;-22555.72;;;3.92;82.30
5296;BME280;2670;42.720;23.336;2023-03-19T08:13:31;-22559.13;;;4.04;77.15
5296;BME280;2670;42.720;23.336;2023-03-19T08:15:58;-22558.38;;;4.01;83.19
5296;BME280;2670;42.720;23.336;2023-03-19T08:18:24;-22558.84;;;4.03;77.44
5296;BME280;2670;42.720;23.336;2023-03-19T08:20:51;-22558.25;;;4.00;76.55
5296;BME280;2670;42.720;23.336;2023-03-19T08:23:18;-22560.47;;;4.08;75.45
5296;BME280;2670;42.720;23.336;2023-03-19T08:25:45;-22567.03;;;4.31;71.78
5296;BME280;2670;42.720;23.336;2023-03-19T08:28:13;-22565.25;;;4.24;70.62
5296;BME280;2670;42.720;23.336;2023-03-19T08:30:40;-22570.31;;;4.42;72.95
5296;BME280;2670;42.720;23.336;2023-03-19T08:33:06;-22572.25;;;4.48;67.31
5296;BME280;2670;42.720;23.336;2023-03-19T08:35:33;-22574.06;;;4.55;66.47
5296;BME280;2670;42.720;23.336;2023-03-19T08:38:00;-22575.41;;;4.59;67.36
5296;BME280;2670;42.720;23.336;2023-03-19T08:40:27;-22579.28;;;4.72;68.74
5296;BME280;2670;42.720;23.336;2023-03-19T08:42:54;-22585.22;;;4.93;68.40
5296;BME280;2670;42.720;23.336;2023-03-19T08:45:22;-22586.28;;;4.96;70.36
5296;BME280;2670;42.720;23.336;2023-03-19T08:47:49;-22587.75;;;5.02;69.01
5296;BME280;2670;42.720;23.336;2023-03-19T08:50:17;-22593.13;;;5.20;68.10
5296;BME280;2670;42.720;23.336;2023-03-19T08:52:44;-22601.31;;;5.48;70.77
5296;BME280;2670;42.720;23.336;2023-03-19T08:55:11;-22602.53;;;5.52;67.71
5296;BME280;2670;42.720;23.336;2023-03-19T08:57:37;-22609.66;;;5.77;65.97
5296;BME280;2670;42.720;23.336;2023-03-19T09:00:05;-22608.31;;;5.72;63.97
5296;BME280;2670;42.720;23.336;2023-03-19T09:02:33;-22607.59;;;5.69;65.01
5296;BME280;2670;42.720;23.336;2023-03-19T09:05:00;-22613.97;;;5.91;64.64
5296;BME280;2670;42.720;23.336;2023-03-19T09:07:27;-22618.00;;;6.05;63.54
5296;BME280;2670;42.720;23.336;2023-03-19T09:09:54;-22619.34;;;6.10;62.99
5296;BME280;2670;42.720;23.336;2023-03-19T09:12:20;-22620.53;;;6.14;62.23
5296;BME280;2670;42.720;23.336;2023-03-19T09:14:47;-22626.34;;;6.34;59.78
5296;BME280;2670;42.720;23.336;2023-03-19T09:17:14;-22630.66;;;6.48;61.59
5296;BME280;2670;42.720;23.336;2023-03-19T09:19:43;-22640.19;;;6.81;58.12
5296;BME280;2670;42.720;23.336;2023-03-19T09:22:10;-22646.13;;;7.02;55.13
5296;BME280;2670;42.720;23.336;2023-03-19T09:24:37;-22645.69;;;7.00;54.93
5296;BME280;2670;42.720;23.336;2023-03-19T09:27:04;-22647.47;;;7.06;56.49
5296;BME280;2670;42.720;23.336;2023-03-19T09:29:31;-22652.97;;;7.25;55.50
5296;BME280;2670;42.720;23.336;2023-03-19T09:31:57;-22651.63;;;7.20;54.11
5296;BME280;2670;42.720;23.336;2023-03-19T09:34:25;-22661.00;;;7.53;53.55
5296;BME280;2670;42.720;23.336;2023-03-19T09:36:54;-22662.19;;;7.57;52.28
5296;BME280;2670;42.720;23.336;2023-03-19T09:39:20;-22660.84;;;7.52;50.52
5296;BME280;2670;42.720;23.336;2023-03-19T09:42:09;-22664.88;;;7.66;54.42
5296;BME280;2670;42.720;23.336;2023-03-19T09:44:42;-22674.81;;;8.00;53.81
5296;BME280;2670;42.720;23.336;2023-03-19T09:47:23;-22679.41;;;8.16;50.87
5296;BME280;2670;42.720;23.336;2023-03-19T09:49:52;-22680.31;;;8.19;50.98
5296;BME280;2670;42.720;23.336;2023-03-19T09:52:32;-22686.09;;;8.39;49.43
5296;BME280;2670;42.720;23.336;2023-03-19T09:55:04;-22688.94;;;8.48;50.38
5296;BME280;2670;42.720;23.336;2023-03-19T09:57:34;-22689.38;;;8.50;50.32
5296;BME280;2670;42.720;23.336;2023-03-19T10:00:13;-22698.13;;;8.80;50.45
5296;BME280;2670;42.720;23.336;2023-03-19T10:02:44;-22708.06;;;9.14;49.34
5296;BME280;2670;42.720;23.336;2023-03-19T10:05:18;-22711.34;;;9.26;49.08
5296;BME280;2670;42.720;23.336;2023-03-19T10:08:00;-22718.16;;;9.49;49.60
5296;BME280;2670;42.720;23.336;2023-03-19T10:10:48;-22720.38;;;9.57;48.22
5296;BME280;2670;42.720;23.336;2023-03-19T10:13:24;-22721.28;;;9.60;47.23
5296;BME280;2670;42.720;23.336;2023-03-19T10:15:53;-22728.41;;;9.84;49.17
5296;BME280;2670;42.720;23.336;2023-03-19T10:18:24;-22728.41;;;9.84;46.83
5296;BME280;2670;42.720;23.336;2023-03-19T10:20:56;-22727.66;;;9.82;46.10
5296;BME280;2670;42.720;23.336;2023-03-19T10:23:42;-22727.78;;;9.82;47.19
5296;BME280;2670;42.720;23.336;2023-03-19T10:26:12;-22732.53;;;9.98;46.22
5296;BME280;2670;42.720;23.336;2023-03-19T10:28:43;-22736.25;;;10.11;44.79
5296;BME280;2670;42.720;23.336;2023-03-19T10:31:20;-22741.00;;;10.28;44.05
5296;BME280;2670;42.720;23.336;2023-03-19T10:33:55;-22745.75;;;10.44;44.99
5296;BME280;2670;42.720;23.336;2023-03-19T10:36:26;-22747.22;;;10.49;44.75
5296;BME280;2670;42.720;23.336;2023-03-19T10:38:57;-22753.59;;;10.71;46.13
5296;BME280;2670;42.720;23.336;2023-03-19T10:41:33;-22761.59;;;10.98;44.59
5296;BME280;2670;42.720;23.336;2023-03-19T10:44:09;-22764.84;;;11.10;44.33
5296;BME280;2670;42.720;23.336;2023-03-19T10:46:39;-22768.97;;;11.24;45.65
5296;BME280;2670;42.720;23.336;2023-03-19T10:49:10;-22772.38;;;11.36;42.90
5296;BME280;2670;42.720;23.336;2023-03-19T10:51:38;-22774.75;;;11.44;44.13
5296;BME280;2670;42.720;23.336;2023-03-19T10:54:19;-22779.19;;;11.59;43.75
5296;BME280;2670;42.720;23.336;2023-03-19T10:56:47;-22784.38;;;11.77;43.03
5296;BME280;2670;42.720;23.336;2023-03-19T10:59:21;-22786.59;;;11.85;42.74
5296;BME280;2670;42.720;23.336;2023-03-19T11:01:48;-22789.72;;;11.95;42.65
5296;BME280;2670;42.720;23.336;2023-03-19T11:04:18;-22792.97;;;12.07;42.77
5296;BME280;2670;42.720;23.336;2023-03-19T11:06:48;-22797.41;;;12.22;41.90
5296;BME280;2670;42.720;23.336;2023-03-19T11:09:24;-22802.41;;;12.39;42.12
5296;BME280;2670;42.720;23.336;2023-03-19T11:11:56;-22806.56;;;12.54;42.03
5296;BME280;2670;42.720;23.336;2023-03-19T11:14:32;-22808.63;;;12.61;43.91
5296;BME280;2670;42.720;23.336;2023-03-19T11:17:04;-22811.59;;;12.71;43.54
5296;BME280;2670;42.720;23.336;2023-03-19T11:19:34;-22816.00;;;12.86;42.19
5296;BME280;2670;42.720;23.336;2023-03-19T11:22:14;-22817.19;;;12.90;41.56
5296;BME280;2670;42.720;23.336;2023-03-19T11:24:49;-22818.97;;;12.96;40.61
5296;BME280;2670;42.720;23.336;2023-03-19T11:27:17;-22820.28;;;13.01;40.05
5296;BME280;2670;42.720;23.336;2023-03-19T11:29:44;-22825.16;;;13.18;42.00
5296;BME280;2670;42.720;23.336;2023-03-19T11:35:05;-22826.06;;;13.21;39.58
5296;BME280;2670;42.720;23.336;2023-03-19T11:37:52;-22826.94;;;13.24;40.00
5296;BME280;2670;42.720;23.336;2023-03-19T11:40:28;-22831.53;;;13.40;39.79
5296;BME280;2670;42.720;23.336;2023-03-19T11:43:13;-22834.47;;;13.50;39.20
5296;BME280;2670;42.720;23.336;2023-03-19T11:45:56;-22837.44;;;13.60;39.16
5296;BME280;2670;42.720;23.336;2023-03-19T11:48:36;-22842.16;;;13.77;40.71
5296;BME280;2670;42.720;23.336;2023-03-19T11:51:09;-22843.47;;;13.81;40.19
5296;BME280;2670;42.720;23.336;2023-03-19T11:53:44;-22846.44;;;13.91;41.18
5296;BME280;2670;42.720;23.336;2023-03-19T11:56:22;-22850.56;;;14.06;39.52
5296;BME280;2670;42.720;23.336;2023-03-19T11:59:14;-22856.00;;;14.25;40.88
5296;BME280;2670;42.720;23.336;2023-03-19T12:02:00;-22856.00;;;14.25;39.31
5296;BME280;2670;42.720;23.336;2023-03-19T12:07:57;-22860.44;;;14.40;38.87
5296;BME280;2670;42.720;23.336;2023-03-19T12:10:36;-22854.09;;;14.18;39.52
5296;BME280;2670;42.720;23.336;2023-03-19T12:13:17;-22855.88;;;14.24;39.72
5296;BME280;2670;42.720;23.336;2023-03-19T12:15:54;-22863.41;;;14.50;38.99
5296;BME280;2670;42.720;23.336;2023-03-19T12:18:38;-22864.88;;;14.55;38.55
5296;BME280;2670;42.720;23.336;2023-03-19T12:21:14;-22865.31;;;14.57;37.82
5296;BME280;2670;42.720;23.336;2023-03-19T12:23:58;-22867.38;;;14.64;38.47
5296;BME280;2670;42.720;23.336;2023-03-19T12:26:33;-22873.41;;;14.85;37.84
5296;BME280;2670;42.720;23.336;2023-03-19T12:29:14;-22875.34;;;14.91;38.47
5296;BME280;2670;42.720;23.336;2023-03-19T12:31:54;-22875.03;;;14.90;39.61
5296;BME280;2670;42.720;23.336;2023-03-19T12:34:30;-22877.69;;;15.00;36.93
5296;BME280;2670;42.720;23.336;2023-03-19T12:37:10;-22877.84;;;15.00;38.03
5296;BME280;2670;42.720;23.336;2023-03-19T12:39:40;-22879.47;;;15.06;37.42
5296;BME280;2670;42.720;23.336;2023-03-19T12:42:11;-22878.13;;;15.01;37.45
5296;BME280;2670;42.720;23.336;2023-03-19T12:44:45;-22886.69;;;15.31;38.40
5296;BME280;2670;42.720;23.336;2023-03-19T12:47:15;-22889.31;;;15.40;37.29
5296;BME280;2670;42.720;23.336;2023-03-19T12:49:47;-22893.44;;;15.54;36.86
5296;BME280;2670;42.720;23.336;2023-03-19T12:52:20;-22897.28;;;15.67;36.95
5296;BME280;2670;42.720;23.336;2023-03-19T12:54:53;-22900.38;;;15.78;36.78
5296;BME280;2670;42.720;23.336;2023-03-19T12:57:28;-22902.00;;;15.84;35.78
5296;BME280;2670;42.720;23.336;2023-03-19T13:00:02;-22902.00;;;15.84;38.08
5296;BME280;2670;42.720;23.336;2023-03-19T13:02:34;-22904.19;;;15.91;36.54
5296;BME280;2670;42.720;23.336;2023-03-19T13:05:08;-22901.41;;;15.82;36.19
5296;BME280;2670;42.720;23.336;2023-03-19T13:07:51;-22904.94;;;15.94;36.71
5296;BME280;2670;42.720;23.336;2023-03-19T13:10:21;-22906.13;;;15.98;36.17
5296;BME280;2670;42.720;23.336;2023-03-19T13:12:49;-22909.78;;;16.11;36.25
5296;BME280;2670;42.720;23.336;2023-03-19T13:15:24;-22907.44;;;16.03;36.09
5296;BME280;2670;42.720;23.336;2023-03-19T13:17:59;-22907.28;;;16.02;36.33
5296;BME280;2670;42.720;23.336;2023-03-19T13:20:44;-22910.09;;;16.12;35.92